createdAt,value
2023-03-04T00:00:37.936Z,83.76
2023-03-04T00:03:21.821Z,84.42
2023-03-04T00:06:07.751Z,85.33
2023-03-04T00:08:51.563Z,85.41
2023-03-04T00:11:35.662Z,85.51
2023-03-04T00:14:19.425Z,84.83
2023-03-04T00:17:04.511Z,85.01
2023-03-04T00:19:48.643Z,85.06
2023-03-04T00:22:33.748Z,85.10
2023-03-04T00:25:17.546Z,84.90
2023-03-04T00:28:01.320Z,83.47
2023-03-04T00:30:45.099Z,84.06
2023-03-04T00:33:28.905Z,83.79
2023-03-04T00:36:12.720Z,84.94
2023-03-04T00:38:57.866Z,84.61
2023-03-04T00:41:42.125Z,83.88
2023-03-04T00:44:25.900Z,84.25
2023-03-04T00:47:09.724Z,83.79
2023-03-04T00:49:53.464Z,83.14
2023-03-04T00:52:37.449Z,83.93
2023-03-04T00:55:22.589Z,83.74
2023-03-04T00:58:06.344Z,83.06
2023-03-04T01:00:50.131Z,82.86
2023-03-04T01:03:35.563Z,82.37
2023-03-04T01:06:19.294Z,84.06
2023-03-04T01:09:03.136Z,83.88
2023-03-04T01:11:48.551Z,84.81
2023-03-04T01:14:32.315Z,85.86
2023-03-04T01:17:16.090Z,85.29
2023-03-04T01:19:59.911Z,85.43
2023-03-04T01:22:43.662Z,85.26
2023-03-04T01:25:27.518Z,85.30
2023-03-04T01:28:12.750Z,85.22
2023-03-04T01:30:58.277Z,84.59
2023-03-04T01:33:42.031Z,85.00
2023-03-04T01:36:27.140Z,84.07
2023-03-04T01:39:10.893Z,83.14
2023-03-04T01:41:54.639Z,83.00
2023-03-04T01:44:39.841Z,83.21
2023-03-04T01:47:27.322Z,82.85
2023-03-04T01:50:18.832Z,82.04
2023-03-04T01:53:02.920Z,82.54
2023-03-04T01:55:46.910Z,82.42
2023-03-04T01:58:32.167Z,82.52
2023-03-04T02:01:17.261Z,81.84
2023-03-04T02:04:01.599Z,80.16
2023-03-04T02:06:47.722Z,80.80
2023-03-04T02:09:33.199Z,80.95
2023-03-04T02:12:18.742Z,81.46
2023-03-04T02:15:02.585Z,82.24
2023-03-04T02:17:51.287Z,82.42
2023-03-04T02:20:45.064Z,82.05
2023-03-04T02:23:34.289Z,81.75
2023-03-04T02:26:21.218Z,81.37
2023-03-04T02:29:07.775Z,80.86
2023-03-04T02:31:53.155Z,81.06
2023-03-04T02:34:37.838Z,80.92
2023-03-04T02:37:21.812Z,81.01
2023-03-04T02:40:15.026Z,81.32
2023-03-04T02:43:02.161Z,81.24
2023-03-04T02:45:47.652Z,81.66
2023-03-04T02:48:31.727Z,80.85
2023-03-04T02:51:15.545Z,80.22
2023-03-04T02:53:59.559Z,79.98
2023-03-04T02:56:46.789Z,80.07
2023-03-04T02:59:32.982Z,80.86
2023-03-04T03:02:16.768Z,81.15
2023-03-04T03:05:00.608Z,81.79
2023-03-04T03:07:44.825Z,82.08
2023-03-04T03:10:29.650Z,82.59
2023-03-04T03:13:13.632Z,82.60
2023-03-04T03:15:59.246Z,82.71
2023-03-04T03:18:43.093Z,83.78
2023-03-04T03:21:26.870Z,84.26
2023-03-04T03:24:10.730Z,84.00
2023-03-04T03:26:54.581Z,83.45
2023-03-04T03:29:38.554Z,84.45
2023-03-04T03:32:26.327Z,83.25
2023-03-04T03:35:10.473Z,83.45
2023-03-04T03:37:54.220Z,83.75
2023-03-04T03:40:38.144Z,83.56
2023-03-04T03:43:21.869Z,84.16
2023-03-04T03:46:06.018Z,84.19
2023-03-04T03:48:51.241Z,83.86
2023-03-04T03:51:35.112Z,83.97
2023-03-04T03:54:18.894Z,84.12
2023-03-04T03:57:02.647Z,84.55
2023-03-04T03:59:46.469Z,83.86
2023-03-04T04:02:30.372Z,83.72
2023-03-04T04:05:16.108Z,83.25
2023-03-04T04:07:59.894Z,84.46
2023-03-04T04:10:44.572Z,84.48
2023-03-04T04:13:28.386Z,84.53
2023-03-04T04:16:12.889Z,84.18
2023-03-04T04:18:56.761Z,84.57
2023-03-04T04:21:41.837Z,84.98
2023-03-04T04:24:25.741Z,84.14
2023-03-04T04:27:09.657Z,83.83
2023-03-04T04:29:53.471Z,82.96
2023-03-04T04:32:37.259Z,83.47
2023-03-04T04:35:21.290Z,83.58
2023-03-04T04:38:06.614Z,83.20
2023-03-04T04:40:50.366Z,83.23
2023-03-04T04:43:34.206Z,83.78
2023-03-04T04:46:19.111Z,83.13
2023-03-04T04:49:03.377Z,82.74
2023-03-04T04:51:47.823Z,82.95
2023-03-04T04:54:33.334Z,82.38
2023-03-04T04:57:17.270Z,82.98
2023-03-04T05:00:01.137Z,83.29
2023-03-04T05:02:47.452Z,83.20
2023-03-04T05:05:31.322Z,83.41
2023-03-04T05:08:15.123Z,83.53
2023-03-04T05:11:00.387Z,83.42
2023-03-04T05:13:44.436Z,83.56
2023-03-04T05:16:28.299Z,83.31
2023-03-04T05:19:12.375Z,82.76
2023-03-04T05:21:56.228Z,82.97
2023-03-04T05:24:40.023Z,82.34
2023-03-04T05:27:25.282Z,82.65
2023-03-04T05:30:10.625Z,82.20
2023-03-04T05:32:54.679Z,82.59
2023-03-04T05:35:39.513Z,82.62
2023-03-04T05:38:24.144Z,82.18
2023-03-04T05:41:08.819Z,81.71
2023-03-04T05:43:54.029Z,82.05
2023-03-04T05:46:38.021Z,81.73
2023-03-04T05:49:21.971Z,81.67
2023-03-04T05:52:05.638Z,81.90
2023-03-04T05:54:49.399Z,81.44
2023-03-04T05:57:33.412Z,81.29
2023-03-04T06:00:19.153Z,80.33
2023-03-04T06:03:03.021Z,82.37
2023-03-04T06:05:47.115Z,82.45
2023-03-04T06:08:30.976Z,81.93
2023-03-04T06:11:14.873Z,81.08
2023-03-04T06:13:58.869Z,80.31
2023-03-04T06:16:44.122Z,80.04
2023-03-04T06:19:27.891Z,79.83
2023-03-04T06:22:12.413Z,79.11
2023-03-04T06:24:56.593Z,79.43
2023-03-04T06:27:40.616Z,79.03
2023-03-04T06:30:24.840Z,78.77
2023-03-04T06:33:10.242Z,78.59
2023-03-04T06:35:56.466Z,78.45
2023-03-04T06:38:40.492Z,77.25
2023-03-04T06:41:24.333Z,77.29
2023-03-04T06:44:08.493Z,77.22
2023-03-04T06:46:52.517Z,76.77
2023-03-04T06:49:37.779Z,76.11
2023-03-04T06:52:21.619Z,75.17
2023-03-04T06:55:06.584Z,76.11
2023-03-04T06:57:50.360Z,75.19
2023-03-04T07:00:34.358Z,73.17
2023-03-04T07:03:18.274Z,73.42
2023-03-04T07:06:03.466Z,73.44
2023-03-04T07:08:48.008Z,73.65
2023-03-04T07:11:31.918Z,73.39
2023-03-04T07:14:15.861Z,72.54
2023-03-04T07:16:59.894Z,73.31
2023-03-04T07:19:44.787Z,72.88
2023-03-04T07:22:30.046Z,72.24
2023-03-04T07:25:13.854Z,71.80
2023-03-04T07:27:57.692Z,72.11
2023-03-04T07:30:41.541Z,71.45
2023-03-04T07:33:25.319Z,70.20
2023-03-04T07:36:09.349Z,68.62
2023-03-04T07:38:55.946Z,67.81
2023-03-04T07:41:39.885Z,67.58
2023-03-04T07:44:23.630Z,68.31
2023-03-04T07:47:07.501Z,68.99
2023-03-04T07:49:51.621Z,68.14
2023-03-04T07:52:38.999Z,67.49
2023-03-04T07:55:24.222Z,65.94
2023-03-04T07:58:07.998Z,64.60
2023-03-04T08:00:51.759Z,65.88
2023-03-04T08:03:35.748Z,68.49
2023-03-04T08:06:21.603Z,69.79
2023-03-04T08:09:07.748Z,66.89
2023-03-04T08:11:52.962Z,67.76
2023-03-04T08:14:36.833Z,68.00
2023-03-04T08:17:20.606Z,69.11
2023-03-04T08:20:04.817Z,69.41
2023-03-04T08:22:48.664Z,69.35
2023-03-04T08:25:32.548Z,69.47
2023-03-04T08:28:18.556Z,70.14
2023-03-04T08:31:02.366Z,67.89
2023-03-04T08:33:46.838Z,68.63
2023-03-04T08:36:30.722Z,67.64
2023-03-04T08:39:16.716Z,68.13
2023-03-04T08:42:00.622Z,68.33
2023-03-04T08:44:45.902Z,69.63
2023-03-04T08:47:29.755Z,69.37
2023-03-04T08:50:13.691Z,70.62
2023-03-04T08:52:57.604Z,69.81
2023-03-04T08:55:42.264Z,68.44
2023-03-04T08:58:26.226Z,69.06
2023-03-04T09:01:13.383Z,69.12
2023-03-04T09:03:57.382Z,70.41
2023-03-04T09:06:41.552Z,70.44
2023-03-04T09:09:25.448Z,69.21
2023-03-04T09:12:09.342Z,69.06
2023-03-04T09:15:08.328Z,70.39
2023-03-04T09:17:55.276Z,69.94
2023-03-04T09:20:39.109Z,67.98
2023-03-04T09:23:23.443Z,68.47
2023-03-04T09:26:16.485Z,69.35
2023-03-04T09:29:02.392Z,70.54
2023-03-04T09:31:46.654Z,71.25
2023-03-04T09:34:32.010Z,70.14
2023-03-04T09:37:15.866Z,70.37
2023-03-04T09:39:59.614Z,70.25
2023-03-04T09:42:49.093Z,70.92
2023-03-04T09:45:39.375Z,71.59
2023-03-04T09:48:26.233Z,70.79
2023-03-04T09:51:21.420Z,69.77
2023-03-04T09:54:09.195Z,69.36
2023-03-04T09:56:57.287Z,68.95
2023-03-04T09:59:47.296Z,67.38
2023-03-04T10:02:43.336Z,67.75
2023-03-04T10:05:28.883Z,67.99
2023-03-04T10:08:37.035Z,67.01
2023-03-04T10:11:27.769Z,67.27
2023-03-04T10:14:33.833Z,66.50
2023-03-04T10:17:23.779Z,66.83
2023-03-04T10:20:13.818Z,65.98
2023-03-04T10:23:00.027Z,65.94
2023-03-04T10:25:51.803Z,66.41
2023-03-04T10:28:36.707Z,64.37
2023-03-04T10:31:28.684Z,63.75
2023-03-04T10:34:13.699Z,63.96
2023-03-04T10:37:00.653Z,63.68
2023-03-04T10:39:46.735Z,64.36
2023-03-04T10:42:37.628Z,62.89
2023-03-04T10:45:23.668Z,64.43
2023-03-04T10:48:08.037Z,65.16
2023-03-04T10:50:51.985Z,66.20
2023-03-04T10:53:40.696Z,65.74
2023-03-04T10:56:34.971Z,67.09
2023-03-04T10:59:41.996Z,65.75
2023-03-04T11:02:28.164Z,66.69
2023-03-04T11:05:19.646Z,65.45
2023-03-04T11:08:03.475Z,64.15
2023-03-04T11:10:47.656Z,65.36
2023-03-04T11:13:32.802Z,64.39
2023-03-04T11:16:27.925Z,65.53
2023-03-04T11:19:17.920Z,66.84
2023-03-04T11:22:02.911Z,66.23
2023-03-04T11:24:52.597Z,66.57
2023-03-04T11:27:43.234Z,66.22
2023-03-04T11:30:42.785Z,66.51
2023-03-04T11:33:37.329Z,66.44
2023-03-04T11:36:32.690Z,66.62
2023-03-04T11:39:23.200Z,65.59
2023-03-04T11:42:14.601Z,64.96
2023-03-04T11:44:58.812Z,62.97
2023-03-04T11:48:04.503Z,63.04
2023-03-04T11:50:54.799Z,62.03
2023-03-04T11:53:50.843Z,61.82
2023-03-04T11:56:40.899Z,61.72
2023-03-04T11:59:52.268Z,60.82
2023-03-04T12:02:44.747Z,60.90
2023-03-04T12:05:36.416Z,59.05
2023-03-04T12:08:44.490Z,58.28
2023-03-04T12:11:40.322Z,58.91
2023-03-04T12:14:30.758Z,58.28
2023-03-04T12:17:40.468Z,59.49
2023-03-04T12:20:38.435Z,59.01
2023-03-04T12:23:34.915Z,60.17
2023-03-04T12:26:34.435Z,59.66
2023-03-04T12:29:27.941Z,59.80
2023-03-04T12:32:19.535Z,60.52
2023-03-04T12:35:21.494Z,59.88
2023-03-04T12:38:20.890Z,59.92
2023-03-04T12:41:21.384Z,59.51
2023-03-04T12:44:17.032Z,59.04
2023-03-04T12:47:18.614Z,60.00
2023-03-04T12:50:22.406Z,61.52
2023-03-04T12:53:17.529Z,60.86
2023-03-04T12:56:03.623Z,63.17
2023-03-04T12:58:47.646Z,62.28
2023-03-04T13:01:40.096Z,60.98
2023-03-04T13:04:29.751Z,61.21
2023-03-04T13:07:20.218Z,60.70
2023-03-04T13:10:11.906Z,60.16
2023-03-04T13:12:58.186Z,61.08
2023-03-04T13:15:42.207Z,59.17
2023-03-04T13:18:35.599Z,59.59
2023-03-04T13:21:25.456Z,58.61
2023-03-04T13:24:46.019Z,57.89
2023-03-04T13:27:51.913Z,57.45
2023-03-04T13:31:04.746Z,58.26
2023-03-04T13:34:06.529Z,58.15
2023-03-04T13:36:57.290Z,57.54
2023-03-04T13:39:41.238Z,59.28
2023-03-04T13:42:42.988Z,58.85
2023-03-04T13:45:38.962Z,58.13
2023-03-04T13:48:28.590Z,57.81
2023-03-04T13:51:28.932Z,57.42
2023-03-04T13:54:24.107Z,56.25
2023-03-04T13:57:20.654Z,56.09
2023-03-04T14:00:06.842Z,58.13
2023-03-04T14:02:52.470Z,54.79
2023-03-04T14:05:36.421Z,55.36
2023-03-04T14:08:22.439Z,56.17
2023-03-04T14:11:06.519Z,56.04
2023-03-04T14:13:50.770Z,56.62
2023-03-04T14:16:40.964Z,56.06
2023-03-04T14:19:29.654Z,57.77
2023-03-04T14:22:23.149Z,57.67
2023-03-04T14:25:22.303Z,58.71
2023-03-04T14:28:11.767Z,57.91
2023-03-04T14:30:58.388Z,59.07
2023-03-04T14:33:47.127Z,57.94
2023-03-04T14:36:33.912Z,58.64
2023-03-04T14:39:20.098Z,57.99
2023-03-04T14:42:11.566Z,58.92
2023-03-04T14:44:59.800Z,58.85
2023-03-04T14:47:47.645Z,58.63
2023-03-04T14:50:31.651Z,58.38
2023-03-04T14:53:17.977Z,58.10
2023-03-04T14:56:04.669Z,58.22
2023-03-04T14:58:57.161Z,58.74
2023-03-04T15:01:40.980Z,58.19
2023-03-04T15:04:24.958Z,58.65
2023-03-04T15:07:19.844Z,61.11
2023-03-04T15:10:08.360Z,60.36
2023-03-04T15:12:54.398Z,62.14
2023-03-04T15:15:42.134Z,61.09
2023-03-04T15:18:27.308Z,61.73
2023-03-04T15:21:36.933Z,63.65
2023-03-04T15:24:21.705Z,63.73
2023-03-04T15:27:08.316Z,65.83
2023-03-04T15:29:56.060Z,65.11
2023-03-04T15:32:41.416Z,65.43
2023-03-04T15:35:26.566Z,65.79
2023-03-04T15:38:13.954Z,67.00
2023-03-04T15:40:58.510Z,68.15
2023-03-04T15:43:42.468Z,67.24
2023-03-04T15:46:26.378Z,67.05
2023-03-04T15:49:12.048Z,66.94
2023-03-04T15:51:55.774Z,67.95
2023-03-04T15:54:39.582Z,68.02
2023-03-04T15:57:26.073Z,70.41
2023-03-04T16:00:12.726Z,69.74
2023-03-04T16:02:56.557Z,68.63
2023-03-04T16:05:42.105Z,69.05
2023-03-04T16:08:26.358Z,69.56
2023-03-04T16:11:16.550Z,69.04
2023-03-04T16:14:00.326Z,69.99
2023-03-04T16:16:46.612Z,69.45
2023-03-04T16:19:30.530Z,69.06
2023-03-04T16:22:17.640Z,69.21
2023-03-04T16:25:01.463Z,68.63
2023-03-04T16:27:45.998Z,70.18
2023-03-04T16:30:29.760Z,72.02
2023-03-04T16:33:15.166Z,71.14
2023-03-04T16:35:59.360Z,72.36
2023-03-04T16:38:44.753Z,74.12
2023-03-04T16:41:30.779Z,74.17
2023-03-04T16:44:16.078Z,75.19
2023-03-04T16:46:59.896Z,74.65
2023-03-04T16:49:44.113Z,74.92
2023-03-04T16:52:32.050Z,75.30
2023-03-04T16:55:21.541Z,75.49
2023-03-04T16:58:08.007Z,76.40
2023-03-04T17:00:52.152Z,76.96
2023-03-04T17:03:36.055Z,76.79
2023-03-04T17:06:20.855Z,78.09
2023-03-04T17:09:04.791Z,76.83
2023-03-04T17:11:50.140Z,76.68
2023-03-04T17:14:34.007Z,77.79
2023-03-04T17:17:18.569Z,77.17
2023-03-04T17:20:06.150Z,77.41
2023-03-04T17:22:50.473Z,78.52
2023-03-04T17:25:34.557Z,80.15
2023-03-04T17:28:19.656Z,80.49
2023-03-04T17:31:09.367Z,81.15
2023-03-04T17:33:53.238Z,81.39
2023-03-04T17:36:37.530Z,82.12
2023-03-04T17:39:21.481Z,82.72
2023-03-04T17:42:07.099Z,82.51
2023-03-04T17:44:52.498Z,81.96
2023-03-04T17:47:36.635Z,83.26
2023-03-04T17:50:21.242Z,83.42
2023-03-04T17:53:05.234Z,83.19
2023-03-04T17:55:52.589Z,83.28
2023-03-04T17:58:37.838Z,82.34
2023-03-04T18:01:23.633Z,83.02
2023-03-04T18:04:07.734Z,82.48
2023-03-04T18:06:51.540Z,82.85
2023-03-04T18:09:35.677Z,83.61
2023-03-04T18:12:19.559Z,82.71
2023-03-04T18:15:03.376Z,83.42
2023-03-04T18:17:50.337Z,83.54
2023-03-04T18:20:34.575Z,82.90
2023-03-04T18:23:18.596Z,83.16
2023-03-04T18:26:04.509Z,83.28
2023-03-04T18:28:48.390Z,83.74
2023-03-04T18:31:33.074Z,83.43
2023-03-04T18:34:18.269Z,83.70
2023-03-04T18:37:02.129Z,84.17
2023-03-04T18:39:45.944Z,84.22
2023-03-04T18:42:29.811Z,85.68
2023-03-04T18:45:15.068Z,85.09
2023-03-04T18:48:00.736Z,86.32
2023-03-04T18:50:46.067Z,85.33
2023-03-04T18:53:30.979Z,86.52
2023-03-04T18:56:19.619Z,86.15
2023-03-04T18:59:03.706Z,85.40
2023-03-04T19:01:48.517Z,84.60
2023-03-04T19:04:32.860Z,84.84
2023-03-04T19:07:18.051Z,85.98
2023-03-04T19:10:02.051Z,85.40
2023-03-04T19:12:47.503Z,84.81
2023-03-04T19:15:31.388Z,85.48
2023-03-04T19:18:15.172Z,85.53
2023-03-04T19:21:02.986Z,84.81
2023-03-04T19:23:49.504Z,84.48
2023-03-04T19:26:33.392Z,84.75
2023-03-04T19:29:17.309Z,83.98
2023-03-04T19:32:01.264Z,84.66
2023-03-04T19:34:45.332Z,85.80
2023-03-04T19:37:29.370Z,85.23
2023-03-04T19:40:15.158Z,85.29
2023-03-04T19:42:59.102Z,84.76
2023-03-04T19:45:43.237Z,84.71
2023-03-04T19:48:27.076Z,85.39
2023-03-04T19:51:18.464Z,86.14
2023-03-04T19:54:02.792Z,85.96
2023-03-04T19:56:48.216Z,84.83
2023-03-04T19:59:32.167Z,85.64
2023-03-04T20:02:15.999Z,86.47
2023-03-04T20:05:00.328Z,86.51
2023-03-04T20:07:45.061Z,87.30
2023-03-04T20:10:32.957Z,87.08
2023-03-04T20:13:18.270Z,87.25
2023-03-04T20:16:02.200Z,86.33
2023-03-04T20:18:46.101Z,86.35
2023-03-04T20:21:32.701Z,86.61
2023-03-04T20:24:18.557Z,86.93
2023-03-04T20:27:02.454Z,86.19
2023-03-04T20:29:49.090Z,86.68
2023-03-04T20:32:33.102Z,86.58
2023-03-04T20:35:17.124Z,87.74
2023-03-04T20:38:01.083Z,87.82
2023-03-04T20:40:44.834Z,87.64
2023-03-04T20:43:29.705Z,87.57
2023-03-04T20:46:29.960Z,87.67
2023-03-04T20:49:16.288Z,87.95
2023-03-04T20:52:06.237Z,88.08
2023-03-04T20:54:50.121Z,87.91
2023-03-04T20:57:34.044Z,87.58
2023-03-04T21:00:18.383Z,87.25
2023-03-04T21:03:03.666Z,87.97
2023-03-04T21:05:47.456Z,88.29
2023-03-04T21:08:31.780Z,89.25
2023-03-04T21:11:17.863Z,89.03
2023-03-04T21:14:01.854Z,89.30
2023-03-04T21:16:45.645Z,89.21
2023-03-04T21:19:33.161Z,87.94
2023-03-04T21:22:20.184Z,88.26
2023-03-04T21:25:03.926Z,88.23
2023-03-04T21:27:47.718Z,88.90
2023-03-04T21:30:31.529Z,89.41
2023-03-04T21:33:19.256Z,90.30
2023-03-04T21:36:04.942Z,90.53
2023-03-04T21:38:48.891Z,90.87
2023-03-04T21:41:32.979Z,89.52
2023-03-04T21:44:27.954Z,89.16
2023-03-04T21:47:12.903Z,88.75
2023-03-04T21:49:56.946Z,88.16
2023-03-04T21:52:42.709Z,87.79
2023-03-04T21:55:26.766Z,87.27
2023-03-04T21:58:10.700Z,88.80
2023-03-04T22:00:54.922Z,89.48
2023-03-04T22:03:39.050Z,87.70
2023-03-04T22:06:24.554Z,86.52
2023-03-04T22:09:09.933Z,87.23
2023-03-04T22:11:53.789Z,88.79
2023-03-04T22:14:37.912Z,87.96
2023-03-04T22:17:22.033Z,86.74
2023-03-04T22:20:07.218Z,87.80
2023-03-04T22:22:51.130Z,87.03
2023-03-04T22:25:38.849Z,86.71
2023-03-04T22:28:25.164Z,89.42
2023-03-04T22:31:16.955Z,89.37
2023-03-04T22:34:02.704Z,86.90
2023-03-04T22:36:48.880Z,86.12
2023-03-04T22:39:32.680Z,86.13
2023-03-04T22:42:17.975Z,86.15
2023-03-04T22:45:01.887Z,85.82
2023-03-04T22:47:52.304Z,87.87
2023-03-04T22:50:36.854Z,89.28
2023-03-04T22:53:20.692Z,89.45
2023-03-04T22:56:04.769Z,88.26
2023-03-04T22:58:50.128Z,88.34
2023-03-04T23:01:33.903Z,88.21
2023-03-04T23:04:17.819Z,88.49
2023-03-04T23:07:01.597Z,88.08
2023-03-04T23:09:45.384Z,87.20
2023-03-04T23:12:29.118Z,85.63
2023-03-04T23:15:15.845Z,85.56
2023-03-04T23:18:00.126Z,85.05
2023-03-04T23:20:44.303Z,84.76
2023-03-04T23:23:28.055Z,85.23
2023-03-04T23:26:16.422Z,84.92
2023-03-04T23:29:01.551Z,83.86
2023-03-04T23:31:46.840Z,83.25
2023-03-04T23:34:31.006Z,83.27
2023-03-04T23:37:14.847Z,82.95
2023-03-04T23:39:58.583Z,82.86
2023-03-04T23:42:42.451Z,83.35
2023-03-04T23:45:26.253Z,82.43
2023-03-04T23:48:11.396Z,82.26
2023-03-04T23:50:55.442Z,82.21
2023-03-04T23:53:40.039Z,82.80
2023-03-04T23:56:25.393Z,83.57
2023-03-04T23:59:09.119Z,82.10
